Terminal Aerodrome Forecast
Issued by NWS

Home | Current Version | Previous Version | Text Only | Print | Product List | Glossary On
Versions: 1 2 3 4 5 6 7 8 9 10 11 12 13 14 15 16 17 18 19 20 21 22 23 24 25 26 27 28 29 30 31 32 33 34 35 36 37 38
000
FTUS41 KBOX 022329
TAFBAF
TAF
KBAF 022329Z 0300/0324 17004KT P6SM SKC
     FM030400 17005KT 6SM BR BKN110
     FM030600 00000KT P6SM BKN030
     FM030900 34006KT P6SM SCT250=

USA.gov is the U.S. government's official web portal to all federal, state and local government web resources and services.